createdAt,value
2023-01-12T00:02:21.483Z,11.90
2023-01-12T00:04:48.408Z,12.48
2023-01-12T00:07:16.080Z,14.07
2023-01-12T00:09:42.987Z,13.75
2023-01-12T00:12:11.791Z,18.35
2023-01-12T00:14:39.687Z,14.48
2023-01-12T00:17:07.064Z,11.75
2023-01-12T00:19:34.067Z,12.02
2023-01-12T00:22:05.851Z,15.10
2023-01-12T00:24:38.845Z,14.93
2023-01-12T00:27:15.999Z,15.63
2023-01-12T00:29:43.400Z,15.00
2023-01-12T00:32:17.511Z,17.30
2023-01-12T00:34:45.210Z,14.02
2023-01-12T00:37:12.662Z,17.25
2023-01-12T00:39:43.007Z,15.73
2023-01-12T00:42:31.830Z,16.85
2023-01-12T00:45:17.105Z,15.52
2023-01-12T00:47:43.933Z,15.07
2023-01-12T00:50:11.084Z,18.27
2023-01-12T00:52:38.030Z,22.65
2023-01-12T00:55:05.614Z,25.45
2023-01-12T00:57:32.543Z,22.23
2023-01-12T01:00:00.061Z,26.92
2023-01-12T01:02:28.546Z,27.00
2023-01-12T01:04:56.305Z,21.10
2023-01-12T01:07:23.686Z,20.77
2023-01-12T01:09:51.257Z,24.55
2023-01-12T01:12:18.762Z,20.52
2023-01-12T01:14:47.904Z,19.58
2023-01-12T01:17:15.129Z,17.90
2023-01-12T01:19:43.326Z,19.42
2023-01-12T01:22:10.215Z,20.83
2023-01-12T01:24:37.662Z,17.20
2023-01-12T01:27:04.404Z,19.42
2023-01-12T01:29:31.152Z,18.27
2023-01-12T01:31:57.967Z,17.17
2023-01-12T01:34:24.856Z,17.25
2023-01-12T01:36:51.719Z,10.95
2023-01-12T01:39:18.603Z,18.65
2023-01-12T01:41:45.636Z,17.15
2023-01-12T01:44:30.602Z,13.73
2023-01-12T01:47:16.457Z,17.30
2023-01-12T01:49:50.992Z,18.50
2023-01-12T01:52:32.895Z,14.65
2023-01-12T01:55:16.399Z,16.80
2023-01-12T01:57:55.603Z,15.88
2023-01-12T02:00:24.730Z,16.77
2023-01-12T02:02:52.904Z,12.00
2023-01-12T02:05:25.163Z,15.35
2023-01-12T02:07:53.366Z,14.60
2023-01-12T02:10:21.140Z,11.93
2023-01-12T02:13:08.521Z,14.57
2023-01-12T02:16:18.880Z,15.52
2023-01-12T02:19:33.387Z,12.07
2023-01-12T02:22:48.914Z,11.57
2023-01-12T02:25:58.893Z,10.07
2023-01-12T02:28:51.150Z,10.32
2023-01-12T02:31:37.520Z,10.32
2023-01-12T02:34:37.949Z,8.55
2023-01-12T02:37:17.757Z,9.10
2023-01-12T02:39:59.274Z,9.60
2023-01-12T02:42:54.551Z,9.88
2023-01-12T02:45:47.597Z,8.82
2023-01-12T02:48:37.963Z,10.38
2023-01-12T02:51:13.674Z,9.10
2023-01-12T02:54:01.610Z,8.07
2023-01-12T02:56:51.834Z,8.90
2023-01-12T02:59:25.691Z,9.65
2023-01-12T03:02:00.573Z,7.72
2023-01-12T03:04:28.246Z,6.05
2023-01-12T03:06:57.791Z,10.77
2023-01-12T03:09:37.581Z,10.55
2023-01-12T03:12:10.383Z,12.32
2023-01-12T03:14:43.672Z,12.82
2023-01-12T03:17:31.569Z,10.75
2023-01-12T03:20:21.513Z,13.43
2023-01-12T03:22:53.649Z,10.90
2023-01-12T03:25:23.023Z,10.88
2023-01-12T03:27:56.003Z,10.40
2023-01-12T03:30:43.886Z,8.20
2023-01-12T03:33:12.417Z,8.10
2023-01-12T03:35:51.436Z,8.60
2023-01-12T03:38:51.619Z,11.20
2023-01-12T03:41:59.519Z,8.35
2023-01-12T03:44:57.652Z,11.65
2023-01-12T03:47:32.854Z,6.72
2023-01-12T03:50:16.573Z,4.72
2023-01-12T03:52:45.965Z,7.00
2023-01-12T03:55:19.254Z,7.60
2023-01-12T03:57:47.676Z,8.05
2023-01-12T04:00:17.060Z,6.95
2023-01-12T04:02:44.720Z,6.78
2023-01-12T04:05:14.138Z,7.88
2023-01-12T04:07:41.199Z,5.70
2023-01-12T04:10:08.961Z,5.57
2023-01-12T04:12:35.793Z,6.70
2023-01-12T04:15:02.643Z,9.55
2023-01-12T04:17:29.458Z,8.43
2023-01-12T04:19:56.280Z,6.63
2023-01-12T04:22:41.584Z,8.60
2023-01-12T04:25:10.269Z,7.63
2023-01-12T04:27:42.351Z,7.78
2023-01-12T04:30:10.246Z,6.57
2023-01-12T04:32:37.793Z,5.90
2023-01-12T04:35:06.120Z,6.15
2023-01-12T04:37:34.003Z,8.10
2023-01-12T04:40:01.261Z,6.45
2023-01-12T04:42:47.114Z,7.80
2023-01-12T04:45:14.151Z,6.18
2023-01-12T04:47:40.977Z,6.78
2023-01-12T04:50:09.386Z,7.85
2023-01-12T04:52:37.735Z,7.60
2023-01-12T04:55:05.931Z,5.93
2023-01-12T04:57:32.813Z,5.15
2023-01-12T04:59:59.696Z,6.70
2023-01-12T05:02:28.089Z,6.70
2023-01-12T05:04:57.282Z,5.57
2023-01-12T05:07:24.093Z,6.95
2023-01-12T05:10:09.707Z,4.88
2023-01-12T05:12:36.602Z,5.80
2023-01-12T05:15:03.846Z,5.40
2023-01-12T05:17:32.683Z,5.18
2023-01-12T05:20:00.933Z,4.78
2023-01-12T05:22:28.293Z,6.22
2023-01-12T05:24:55.296Z,4.75
2023-01-12T05:27:22.163Z,6.35
2023-01-12T05:29:49.506Z,4.05
2023-01-12T05:32:16.512Z,5.28
2023-01-12T05:34:43.363Z,5.32
2023-01-12T05:37:10.196Z,4.28
2023-01-12T05:39:37.019Z,2.42
2023-01-12T05:42:22.363Z,4.03
2023-01-12T05:44:49.129Z,3.35
2023-01-12T05:47:16.085Z,2.72
2023-01-12T05:49:42.941Z,3.53
2023-01-12T05:52:09.869Z,4.05
2023-01-12T05:54:36.726Z,2.20
2023-01-12T05:57:03.679Z,3.78
2023-01-12T05:59:30.516Z,1.65
2023-01-12T06:01:57.369Z,2.17
2023-01-12T06:04:25.239Z,2.22
2023-01-12T06:06:53.160Z,2.53
2023-01-12T06:09:19.961Z,3.95
2023-01-12T06:12:05.736Z,1.52
2023-01-12T06:14:32.785Z,1.33
2023-01-12T06:16:59.637Z,1.50
2023-01-12T06:19:26.469Z,1.10
2023-01-12T06:21:55.189Z,3.47
2023-01-12T06:24:22.162Z,1.60
2023-01-12T06:26:48.975Z,1.92
2023-01-12T06:29:15.821Z,1.45
2023-01-12T06:31:43.810Z,1.33
2023-01-12T06:34:11.953Z,1.20
2023-01-12T06:36:39.817Z,2.00
2023-01-12T06:39:06.717Z,1.13
2023-01-12T06:41:55.258Z,2.50
2023-01-12T06:44:22.201Z,2.22
2023-01-12T06:46:49.241Z,1.83
2023-01-12T06:49:16.652Z,1.63
2023-01-12T06:51:44.057Z,2.13
2023-01-12T06:54:10.876Z,1.58
2023-01-12T06:56:37.670Z,3.45
2023-01-12T06:59:04.577Z,2.17
2023-01-12T07:01:31.574Z,4.20
2023-01-12T07:03:58.421Z,2.28
2023-01-12T07:06:25.241Z,2.45
2023-01-12T07:08:51.971Z,2.38
2023-01-12T07:11:18.820Z,3.13
2023-01-12T07:13:45.642Z,4.35
2023-01-12T07:16:12.923Z,5.75
2023-01-12T07:18:40.383Z,3.67
2023-01-12T07:21:10.466Z,4.53
2023-01-12T07:23:37.780Z,6.78
2023-01-12T07:26:04.919Z,5.35
2023-01-12T07:28:33.669Z,7.13
2023-01-12T07:31:06.308Z,5.43
2023-01-12T07:33:34.373Z,6.82
2023-01-12T07:36:02.550Z,8.07
2023-01-12T07:38:30.914Z,6.50
2023-01-12T07:41:02.569Z,8.45
2023-01-12T07:43:30.635Z,8.10
2023-01-12T07:45:58.964Z,7.95
2023-01-12T07:48:27.319Z,7.57
2023-01-12T07:50:54.692Z,9.07
2023-01-12T07:53:21.665Z,11.35
2023-01-12T07:55:48.600Z,8.73
2023-01-12T07:58:15.510Z,10.45
2023-01-12T08:00:42.380Z,12.38
2023-01-12T08:03:13.804Z,10.68
2023-01-12T08:05:40.718Z,13.98
2023-01-12T08:08:08.247Z,12.57
2023-01-12T08:10:35.145Z,7.88
2023-01-12T08:13:02.364Z,8.57
2023-01-12T08:15:37.329Z,13.30
2023-01-12T08:18:16.369Z,8.70
2023-01-12T08:20:44.664Z,13.57
2023-01-12T08:23:24.259Z,10.07
2023-01-12T08:25:59.272Z,15.90
2023-01-12T08:28:38.067Z,14.18
2023-01-12T08:31:09.829Z,11.05
2023-01-12T08:33:38.513Z,10.65
2023-01-12T08:36:09.095Z,11.65
2023-01-12T08:38:36.468Z,11.90
2023-01-12T08:41:21.955Z,11.65
2023-01-12T08:44:03.874Z,12.15
2023-01-12T08:46:33.399Z,12.85
2023-01-12T08:49:01.017Z,12.75
2023-01-12T08:51:28.703Z,11.43
2023-01-12T08:53:55.964Z,12.85
2023-01-12T08:56:23.151Z,15.77
2023-01-12T08:58:50.128Z,12.27
2023-01-12T09:01:17.501Z,18.00
2023-01-12T09:03:44.493Z,17.40
2023-01-12T09:06:25.700Z,14.93
2023-01-12T09:09:01.964Z,10.73
2023-01-12T09:11:30.648Z,14.93
2023-01-12T09:13:58.737Z,15.02
2023-01-12T09:16:29.002Z,11.95
2023-01-12T09:18:56.615Z,17.27
2023-01-12T09:21:26.666Z,14.23
2023-01-12T09:23:54.647Z,10.63
2023-01-12T09:26:31.634Z,12.45
2023-01-12T09:28:59.936Z,13.45
2023-01-12T09:31:28.664Z,23.15
2023-01-12T09:33:56.125Z,21.60
2023-01-12T09:36:26.350Z,18.38
2023-01-12T09:38:54.369Z,19.95
2023-01-12T09:42:05.642Z,20.35
2023-01-12T09:45:01.813Z,18.88
2023-01-12T09:47:40.544Z,19.45
2023-01-12T09:50:23.644Z,13.00
2023-01-12T09:53:05.552Z,19.10
2023-01-12T09:56:12.294Z,22.17
2023-01-12T09:58:51.137Z,17.85
2023-01-12T10:01:28.776Z,20.27
2023-01-12T10:04:01.440Z,24.25
2023-01-12T10:06:28.963Z,20.30
2023-01-12T10:08:59.806Z,17.45
2023-01-12T10:11:46.270Z,21.65
2023-01-12T10:14:42.105Z,17.63
2023-01-12T10:17:27.719Z,16.50
2023-01-12T10:20:09.629Z,15.93
2023-01-12T10:22:56.435Z,15.98
2023-01-12T10:25:34.987Z,16.98
2023-01-12T10:28:14.481Z,14.35
2023-01-12T10:30:41.792Z,13.90
2023-01-12T10:33:20.550Z,17.40
2023-01-12T10:36:02.811Z,16.55
2023-01-12T10:38:34.785Z,14.95
2023-01-12T10:41:10.582Z,14.98
2023-01-12T10:43:39.765Z,12.88
2023-01-12T10:46:22.341Z,14.85
2023-01-12T10:48:52.785Z,13.90
2023-01-12T10:51:30.251Z,18.08
2023-01-12T10:54:18.904Z,14.43
2023-01-12T10:57:04.759Z,14.60
2023-01-12T10:59:37.234Z,13.50
2023-01-12T11:02:14.643Z,13.48
2023-01-12T11:04:51.537Z,10.43
2023-01-12T11:07:31.617Z,10.95
2023-01-12T11:10:27.609Z,14.75
2023-01-12T11:13:04.295Z,10.80
2023-01-12T11:15:38.747Z,8.70
2023-01-12T11:18:27.119Z,14.30
2023-01-12T11:21:02.277Z,15.23
2023-01-12T11:23:57.933Z,11.77
2023-01-12T11:26:38.148Z,11.30
2023-01-12T11:29:46.360Z,16.20
2023-01-12T11:32:30.653Z,13.55
2023-01-12T11:35:06.138Z,13.85
2023-01-12T11:37:38.124Z,15.82
2023-01-12T11:40:34.800Z,15.85
2023-01-12T11:43:43.568Z,18.48
2023-01-12T11:46:49.330Z,13.55
2023-01-12T11:49:27.208Z,12.55
2023-01-12T11:51:58.288Z,11.65
2023-01-12T11:54:28.361Z,12.77
2023-01-12T11:57:12.929Z,10.63
2023-01-12T12:00:30.394Z,11.23
2023-01-12T12:03:30.102Z,10.90
2023-01-12T12:06:46.731Z,10.70
2023-01-12T12:10:00.327Z,10.23
2023-01-12T12:12:42.493Z,9.10
2023-01-12T12:15:36.285Z,9.05
2023-01-12T12:18:38.340Z,14.35
2023-01-12T12:21:29.964Z,9.77
2023-01-12T12:24:22.951Z,8.45
2023-01-12T12:27:20.719Z,12.23
2023-01-12T12:30:25.384Z,17.88
2023-01-12T12:33:19.730Z,13.27
2023-01-12T12:36:04.756Z,14.02
2023-01-12T12:39:09.111Z,12.70
2023-01-12T12:42:48.745Z,14.43
2023-01-12T12:45:32.980Z,12.77
2023-01-12T12:48:21.066Z,8.70
2023-01-12T12:51:08.779Z,10.82
2023-01-12T12:53:46.238Z,9.80
2023-01-12T12:56:17.759Z,7.20
2023-01-12T12:58:55.978Z,6.18
2023-01-12T13:01:27.173Z,6.50
2023-01-12T13:03:56.500Z,5.13
2023-01-12T13:06:29.461Z,4.28
2023-01-12T13:08:59.661Z,3.13
2023-01-12T13:11:53.327Z,4.57
2023-01-12T13:14:26.293Z,3.58
2023-01-12T13:17:02.554Z,1.20
2023-01-12T13:19:44.557Z,2.10
2023-01-12T13:22:32.602Z,1.58
2023-01-12T13:25:20.751Z,1.88
2023-01-12T13:28:00.027Z,2.60
2023-01-12T13:30:26.828Z,1.35
2023-01-12T13:32:53.594Z,0.95
2023-01-12T13:35:35.439Z,0.47
2023-01-12T13:38:18.282Z,2.05
2023-01-12T13:40:56.089Z,1.88
2023-01-12T13:43:34.206Z,1.73
2023-01-12T13:46:17.324Z,1.58
2023-01-12T13:48:49.633Z,2.97
2023-01-12T13:51:53.527Z,1.05
2023-01-12T13:54:20.335Z,2.00
2023-01-12T13:57:06.535Z,1.92
2023-01-12T13:59:34.899Z,2.63
2023-01-12T14:02:02.927Z,2.70
2023-01-12T14:05:00.748Z,1.80
2023-01-12T14:07:52.853Z,1.30
2023-01-12T14:10:45.509Z,2.25
2023-01-12T14:13:54.598Z,1.30
2023-01-12T14:16:41.897Z,5.43
2023-01-12T14:19:28.916Z,1.33
2023-01-12T14:22:04.811Z,2.25
2023-01-12T14:24:31.638Z,2.80
2023-01-12T14:26:58.545Z,1.35
2023-01-12T14:29:25.405Z,1.50
2023-01-12T14:31:54.090Z,2.10
2023-01-12T14:34:34.631Z,0.63
2023-01-12T14:37:04.400Z,4.55
2023-01-12T14:39:40.950Z,1.30
2023-01-12T14:42:37.121Z,2.95
2023-01-12T14:45:45.091Z,2.92
2023-01-12T14:48:34.058Z,0.80
2023-01-12T14:51:22.433Z,2.55
2023-01-12T14:53:59.607Z,2.20
2023-01-12T14:56:52.098Z,0.98
2023-01-12T14:59:28.690Z,2.05
2023-01-12T15:02:40.845Z,1.60
2023-01-12T15:05:10.458Z,2.97
2023-01-12T15:07:55.128Z,2.83
2023-01-12T15:10:33.743Z,1.27
2023-01-12T15:13:26.590Z,1.73
2023-01-12T15:16:14.287Z,1.80
2023-01-12T15:19:00.132Z,3.65
2023-01-12T15:21:47.047Z,2.33
2023-01-12T15:24:46.049Z,2.28
2023-01-12T15:27:19.482Z,1.25
2023-01-12T15:29:46.663Z,2.15
2023-01-12T15:32:47.275Z,1.00
2023-01-12T15:35:24.037Z,1.42
2023-01-12T15:37:56.677Z,1.27
2023-01-12T15:40:26.209Z,1.42
2023-01-12T15:42:53.777Z,2.75
2023-01-12T15:45:34.398Z,2.92
2023-01-12T15:48:02.828Z,1.42
2023-01-12T15:50:30.834Z,3.47
2023-01-12T15:53:01.006Z,1.63
2023-01-12T15:55:31.333Z,1.58
2023-01-12T15:57:58.213Z,3.22
2023-01-12T16:00:25.737Z,2.17
2023-01-12T16:02:53.660Z,1.38
2023-01-12T16:05:23.470Z,2.92
2023-01-12T16:07:50.590Z,2.42
2023-01-12T16:10:19.133Z,1.42
2023-01-12T16:12:47.910Z,2.95
2023-01-12T16:15:22.689Z,2.60
2023-01-12T16:17:51.679Z,0.98
2023-01-12T16:20:20.465Z,2.92
2023-01-12T16:22:48.100Z,1.90
2023-01-12T16:25:16.251Z,2.78
2023-01-12T16:27:43.218Z,2.80
2023-01-12T16:30:14.930Z,4.20
2023-01-12T16:32:46.608Z,3.08
2023-01-12T16:35:15.515Z,1.45
2023-01-12T16:37:43.355Z,0.93
2023-01-12T16:40:11.485Z,1.45
2023-01-12T16:42:38.254Z,2.25
2023-01-12T16:45:06.208Z,2.28
2023-01-12T16:47:33.213Z,2.10
2023-01-12T16:50:00.275Z,2.80
2023-01-12T16:52:27.835Z,1.42
2023-01-12T16:54:54.880Z,1.73
2023-01-12T16:57:21.859Z,5.07
2023-01-12T16:59:49.558Z,1.88
2023-01-12T17:02:17.943Z,1.65
2023-01-12T17:04:47.783Z,2.15
2023-01-12T17:07:14.987Z,2.25
2023-01-12T17:09:41.995Z,2.72
2023-01-12T17:12:09.100Z,2.47
2023-01-12T17:14:36.857Z,1.40
2023-01-12T17:17:10.109Z,1.75
2023-01-12T17:19:42.587Z,2.75
2023-01-12T17:22:11.238Z,2.08
2023-01-12T17:24:40.568Z,2.47
2023-01-12T17:27:09.741Z,1.65
2023-01-12T17:29:36.732Z,2.55
2023-01-12T17:32:06.806Z,2.63
2023-01-12T17:34:38.349Z,1.75
2023-01-12T17:37:09.676Z,2.65
2023-01-12T17:39:39.932Z,1.95
2023-01-12T17:42:25.841Z,2.97
2023-01-12T17:44:52.708Z,3.75
2023-01-12T17:47:20.121Z,2.53
2023-01-12T17:49:47.944Z,2.13
2023-01-12T17:52:15.437Z,3.75
2023-01-12T17:54:43.087Z,1.75
2023-01-12T17:57:10.131Z,2.45
2023-01-12T17:59:37.214Z,2.50
2023-01-12T18:02:04.744Z,3.20
2023-01-12T18:04:31.896Z,3.78
2023-01-12T18:06:58.769Z,2.50
2023-01-12T18:09:27.811Z,3.22
2023-01-12T18:11:54.725Z,2.42
2023-01-12T18:14:24.318Z,2.80
2023-01-12T18:16:51.433Z,2.38
2023-01-12T18:19:18.471Z,3.67
2023-01-12T18:21:45.353Z,2.38
2023-01-12T18:24:12.347Z,3.10
2023-01-12T18:26:40.088Z,2.70
2023-01-12T18:29:07.173Z,3.42
2023-01-12T18:31:42.172Z,2.80
2023-01-12T18:34:10.612Z,4.38
2023-01-12T18:36:40.615Z,2.78
2023-01-12T18:39:12.239Z,3.03
2023-01-12T18:41:57.636Z,3.17
2023-01-12T18:44:25.236Z,3.88
2023-01-12T18:47:10.804Z,5.18
2023-01-12T18:49:39.596Z,5.90
2023-01-12T18:52:29.723Z,3.33
2023-01-12T18:54:57.084Z,3.83
2023-01-12T18:57:30.244Z,4.05
2023-01-12T19:00:10.636Z,3.80
2023-01-12T19:02:37.916Z,4.18
2023-01-12T19:05:31.028Z,4.15
2023-01-12T19:07:57.846Z,5.80
2023-01-12T19:10:26.101Z,4.43
2023-01-12T19:13:13.086Z,4.07
2023-01-12T19:16:00.429Z,4.18
2023-01-12T19:18:28.035Z,4.18
2023-01-12T19:21:14.924Z,4.50
2023-01-12T19:24:00.292Z,3.95
2023-01-12T19:26:45.853Z,4.57
2023-01-12T19:29:12.747Z,5.97
2023-01-12T19:31:39.752Z,5.68
2023-01-12T19:34:06.638Z,5.32
2023-01-12T19:36:33.487Z,4.32
2023-01-12T19:39:02.057Z,4.00
2023-01-12T19:41:47.732Z,4.15
2023-01-12T19:44:14.506Z,5.13
2023-01-12T19:46:41.436Z,5.38
2023-01-12T19:49:08.331Z,3.85
2023-01-12T19:51:35.117Z,5.28
2023-01-12T19:54:01.947Z,3.03
2023-01-12T19:56:28.877Z,3.55
2023-01-12T19:58:56.416Z,3.15
2023-01-12T20:01:23.978Z,2.80
2023-01-12T20:03:51.325Z,3.30
2023-01-12T20:06:18.404Z,3.05
2023-01-12T20:08:45.288Z,3.38
2023-01-12T20:11:12.421Z,4.20
2023-01-12T20:13:39.277Z,2.33
2023-01-12T20:16:09.311Z,2.65
2023-01-12T20:18:36.880Z,2.25
2023-01-12T20:21:09.275Z,3.42
2023-01-12T20:23:36.152Z,3.05
2023-01-12T20:26:07.790Z,4.20
2023-01-12T20:28:35.349Z,3.50
2023-01-12T20:31:07.510Z,14.70
2023-01-12T20:33:35.013Z,2.55
2023-01-12T20:36:01.899Z,2.00
2023-01-12T20:38:28.814Z,2.55
2023-01-12T20:40:55.684Z,2.05
2023-01-12T20:43:22.614Z,2.65
2023-01-12T20:45:50.097Z,0.90
2023-01-12T20:48:17.146Z,1.58
2023-01-12T20:50:45.454Z,1.45
2023-01-12T20:53:12.763Z,0.80
2023-01-12T20:55:50.552Z,1.58
2023-01-12T20:58:18.640Z,1.98
2023-01-12T21:00:46.744Z,2.08
2023-01-12T21:03:14.561Z,3.92
2023-01-12T21:05:46.061Z,7.75
2023-01-12T21:08:15.577Z,3.00
2023-01-12T21:10:51.364Z,3.58
2023-01-12T21:13:20.025Z,3.40
2023-01-12T21:15:47.604Z,4.20
2023-01-12T21:18:14.497Z,5.75
2023-01-12T21:20:44.242Z,3.60
2023-01-12T21:23:11.455Z,5.30
2023-01-12T21:25:44.727Z,11.00
2023-01-12T21:28:12.400Z,2.45
2023-01-12T21:30:40.560Z,2.97
2023-01-12T21:33:08.012Z,2.97
2023-01-12T21:35:35.161Z,5.15
2023-01-12T21:38:02.350Z,3.15
2023-01-12T21:40:29.468Z,2.05
2023-01-12T21:43:08.517Z,6.38
2023-01-12T21:45:48.739Z,3.42
2023-01-12T21:48:18.243Z,6.20
2023-01-12T21:50:45.104Z,3.50
2023-01-12T21:53:17.592Z,5.10
2023-01-12T21:55:54.429Z,7.38
2023-01-12T21:58:23.028Z,6.43
2023-01-12T22:00:50.152Z,10.77
2023-01-12T22:03:18.053Z,14.50
2023-01-12T22:05:46.324Z,13.20
2023-01-12T22:08:13.407Z,15.60
2023-01-12T22:10:40.309Z,11.73
2023-01-12T22:13:10.093Z,10.40
2023-01-12T22:15:37.002Z,11.15
2023-01-12T22:18:04.469Z,11.00
2023-01-12T22:20:31.478Z,15.88
2023-01-12T22:22:58.605Z,17.98
2023-01-12T22:25:26.833Z,14.13
2023-01-12T22:27:56.209Z,18.45
2023-01-12T22:30:24.261Z,13.05
2023-01-12T22:32:56.006Z,21.73
2023-01-12T22:35:23.427Z,19.65
2023-01-12T22:37:50.258Z,20.30
2023-01-12T22:40:17.485Z,18.20
2023-01-12T22:43:03.070Z,20.50
2023-01-12T22:45:29.930Z,17.60
2023-01-12T22:47:57.074Z,17.90
2023-01-12T22:50:24.841Z,17.77
2023-01-12T22:52:54.374Z,18.92
2023-01-12T22:55:24.324Z,21.05
2023-01-12T22:57:51.662Z,22.85
2023-01-12T23:00:21.103Z,17.05
2023-01-12T23:03:00.036Z,22.45
2023-01-12T23:05:35.615Z,16.63
2023-01-12T23:08:05.590Z,23.70
2023-01-12T23:10:32.959Z,29.33
2023-01-12T23:13:11.615Z,24.50
2023-01-12T23:15:41.236Z,19.50
2023-01-12T23:18:09.110Z,25.63
2023-01-12T23:20:36.721Z,21.77
2023-01-12T23:23:04.944Z,21.95
2023-01-12T23:25:33.303Z,19.40
2023-01-12T23:28:00.419Z,19.38
2023-01-12T23:30:30.826Z,24.50
2023-01-12T23:33:05.725Z,21.63
2023-01-12T23:35:39.831Z,25.42
2023-01-12T23:38:10.368Z,21.55
2023-01-12T23:40:37.161Z,16.83
2023-01-12T23:43:03.916Z,16.80
2023-01-12T23:45:32.512Z,19.60
2023-01-12T23:47:59.289Z,21.98
2023-01-12T23:50:26.050Z,24.40
2023-01-12T23:52:52.828Z,22.90
2023-01-12T23:55:19.622Z,19.23
2023-01-12T23:57:47.527Z,20.42
